sensor_id;sensor_type;location;lat;lon;timestamp;temperature;humidity
35635;DHT22;21757;43.610;1.440;2023-08-07T00:00:12;17.90;99.90
35635;DHT22;21757;43.610;1.440;2023-08-07T00:02:38;17.80;99.90
35635;DHT22;21757;43.610;1.440;2023-08-07T00:05:05;17.80;99.90
35635;DHT22;21757;43.610;1.440;2023-08-07T00:07:30;17.80;99.90
35635;DHT22;21757;43.610;1.440;2023-08-07T00:09:56;17.80;99.90
35635;DHT22;21757;43.610;1.440;2023-08-07T00:12:22;17.70;99.90
35635;DHT22;21757;43.610;1.440;2023-08-07T00:14:51;17.80;99.90
35635;DHT22;21757;43.610;1.440;2023-08-07T00:17:17;17.80;99.90
35635;DHT22;21757;43.610;1.440;2023-08-07T00:19:42;17.70;99.90
35635;DHT22;21757;43.610;1.440;2023-08-07T00:22:08;17.60;99.90
35635;DHT22;21757;43.610;1.440;2023-08-07T00:24:33;17.60;99.90
35635;DHT22;21757;43.610;1.440;2023-08-07T00:26:59;17.60;99.90
35635;DHT22;21757;43.610;1.440;2023-08-07T00:29:25;17.50;99.90
35635;DHT22;21757;43.610;1.440;2023-08-07T00:31:51;17.60;99.90
35635;DHT22;21757;43.610;1.440;2023-08-07T00:34:16;17.50;99.90
35635;DHT22;21757;43.610;1.440;2023-08-07T00:36:42;17.50;99.90
35635;DHT22;21757;43.610;1.440;2023-08-07T00:39:07;17.50;99.90
35635;DHT22;21757;43.610;1.440;2023-08-07T00:41:33;17.40;99.90
35635;DHT22;21757;43.610;1.440;2023-08-07T00:43:59;17.40;99.90
35635;DHT22;21757;43.610;1.440;2023-08-07T00:46:26;17.40;99.90
35635;DHT22;21757;43.610;1.440;2023-08-07T00:48:52;17.40;99.90
35635;DHT22;21757;43.610;1.440;2023-08-07T00:51:19;17.30;99.90
35635;DHT22;21757;43.610;1.440;2023-08-07T00:53:45;17.30;99.90
35635;DHT22;21757;43.610;1.440;2023-08-07T00:56:12;17.30;99.90
35635;DHT22;21757;43.610;1.440;2023-08-07T00:58:38;17.20;99.90
35635;DHT22;21757;43.610;1.440;2023-08-07T01:01:05;17.20;99.90
35635;DHT22;21757;43.610;1.440;2023-08-07T01:03:31;17.20;99.90
35635;DHT22;21757;43.610;1.440;2023-08-07T01:05:57;17.10;99.90
35635;DHT22;21757;43.610;1.440;2023-08-07T01:08:26;17.10;99.90
35635;DHT22;21757;43.610;1.440;2023-08-07T01:13:42;17.10;99.90
35635;DHT22;21757;43.610;1.440;2023-08-07T01:16:26;17.00;99.90
35635;DHT22;21757;43.610;1.440;2023-08-07T01:18:56;17.00;99.90
35635;DHT22;21757;43.610;1.440;2023-08-07T01:21:22;16.90;99.90
35635;DHT22;21757;43.610;1.440;2023-08-07T01:23:48;17.00;99.90
35635;DHT22;21757;43.610;1.440;2023-08-07T01:26:18;16.90;99.90
35635;DHT22;21757;43.610;1.440;2023-08-07T01:31:22;16.90;99.90
35635;DHT22;21757;43.610;1.440;2023-08-07T01:34:06;16.90;99.90
35635;DHT22;21757;43.610;1.440;2023-08-07T01:36:34;16.90;99.90
35635;DHT22;21757;43.610;1.440;2023-08-07T01:39:01;16.90;99.90
35635;DHT22;21757;43.610;1.440;2023-08-07T01:41:28;16.90;99.90
35635;DHT22;21757;43.610;1.440;2023-08-07T01:43:54;17.00;99.90
35635;DHT22;21757;43.610;1.440;2023-08-07T01:46:20;16.90;99.90
35635;DHT22;21757;43.610;1.440;2023-08-07T01:48:46;16.90;99.90
35635;DHT22;21757;43.610;1.440;2023-08-07T01:51:12;16.90;99.90
35635;DHT22;21757;43.610;1.440;2023-08-07T01:53:37;16.80;99.90
35635;DHT22;21757;43.610;1.440;2023-08-07T01:56:03;16.90;99.90
35635;DHT22;21757;43.610;1.440;2023-08-07T01:58:29;17.00;99.90
35635;DHT22;21757;43.610;1.440;2023-08-07T02:00:54;17.00;99.90
35635;DHT22;21757;43.610;1.440;2023-08-07T02:03:20;17.10;99.90
35635;DHT22;21757;43.610;1.440;2023-08-07T02:05:46;17.00;99.90
35635;DHT22;21757;43.610;1.440;2023-08-07T02:08:12;17.00;99.90
35635;DHT22;21757;43.610;1.440;2023-08-07T02:10:38;17.00;99.90
35635;DHT22;21757;43.610;1.440;2023-08-07T02:13:04;17.00;99.90
35635;DHT22;21757;43.610;1.440;2023-08-07T02:15:29;17.00;99.90
35635;DHT22;21757;43.610;1.440;2023-08-07T02:17:55;16.90;99.90
35635;DHT22;21757;43.610;1.440;2023-08-07T02:20:21;16.90;99.90
35635;DHT22;21757;43.610;1.440;2023-08-07T02:22:46;16.80;99.90
35635;DHT22;21757;43.610;1.440;2023-08-07T02:25:12;16.70;99.90
35635;DHT22;21757;43.610;1.440;2023-08-07T02:27:38;16.70;99.90
35635;DHT22;21757;43.610;1.440;2023-08-07T02:30:04;16.70;99.90
35635;DHT22;21757;43.610;1.440;2023-08-07T02:32:31;16.70;99.90
35635;DHT22;21757;43.610;1.440;2023-08-07T02:34:57;16.70;99.90
35635;DHT22;21757;43.610;1.440;2023-08-07T02:37:22;16.60;99.90
35635;DHT22;21757;43.610;1.440;2023-08-07T02:39:48;16.60;99.90
35635;DHT22;21757;43.610;1.440;2023-08-07T02:42:14;16.50;99.90
35635;DHT22;21757;43.610;1.440;2023-08-07T02:44:40;16.50;99.90
35635;DHT22;21757;43.610;1.440;2023-08-07T02:47:06;16.50;99.90
35635;DHT22;21757;43.610;1.440;2023-08-07T02:49:32;16.40;99.90
35635;DHT22;21757;43.610;1.440;2023-08-07T02:51:57;16.40;99.90
35635;DHT22;21757;43.610;1.440;2023-08-07T02:54:23;16.30;99.90
35635;DHT22;21757;43.610;1.440;2023-08-07T02:56:49;16.30;99.90
35635;DHT22;21757;43.610;1.440;2023-08-07T02:59:15;16.20;99.90
35635;DHT22;21757;43.610;1.440;2023-08-07T03:01:41;16.20;99.90
35635;DHT22;21757;43.610;1.440;2023-08-07T03:04:07;16.20;99.90
35635;DHT22;21757;43.610;1.440;2023-08-07T03:06:33;16.20;99.90
35635;DHT22;21757;43.610;1.440;2023-08-07T03:08:59;16.20;99.90
35635;DHT22;21757;43.610;1.440;2023-08-07T03:11:24;16.20;99.90
35635;DHT22;21757;43.610;1.440;2023-08-07T03:13:50;16.20;99.90
35635;DHT22;21757;43.610;1.440;2023-08-07T03:16:16;16.10;99.90
35635;DHT22;21757;43.610;1.440;2023-08-07T03:18:41;16.00;99.90
35635;DHT22;21757;43.610;1.440;2023-08-07T03:21:07;16.00;99.90
35635;DHT22;21757;43.610;1.440;2023-08-07T03:23:33;15.90;99.90
35635;DHT22;21757;43.610;1.440;2023-08-07T03:26:07;15.90;99.90
35635;DHT22;21757;43.610;1.440;2023-08-07T03:28:33;15.90;99.90
35635;DHT22;21757;43.610;1.440;2023-08-07T03:30:59;15.80;99.90
35635;DHT22;21757;43.610;1.440;2023-08-07T03:33:25;15.80;99.90
35635;DHT22;21757;43.610;1.440;2023-08-07T03:35:50;15.80;99.90
35635;DHT22;21757;43.610;1.440;2023-08-07T03:38:16;15.80;99.90
35635;DHT22;21757;43.610;1.440;2023-08-07T03:40:42;15.80;99.90
35635;DHT22;21757;43.610;1.440;2023-08-07T03:43:08;15.90;99.90
35635;DHT22;21757;43.610;1.440;2023-08-07T03:45:33;15.90;99.90
35635;DHT22;21757;43.610;1.440;2023-08-07T03:47:59;15.80;99.90
35635;DHT22;21757;43.610;1.440;2023-08-07T03:50:25;15.70;99.90
35635;DHT22;21757;43.610;1.440;2023-08-07T03:52:50;15.70;99.90
35635;DHT22;21757;43.610;1.440;2023-08-07T03:55:16;15.80;99.90
35635;DHT22;21757;43.610;1.440;2023-08-07T03:57:42;15.90;99.90
35635;DHT22;21757;43.610;1.440;2023-08-07T04:00:08;15.80;99.90
35635;DHT22;21757;43.610;1.440;2023-08-07T04:02:34;15.80;99.90
35635;DHT22;21757;43.610;1.440;2023-08-07T04:04:59;15.90;99.90
35635;DHT22;21757;43.610;1.440;2023-08-07T04:07:25;16.00;99.90
35635;DHT22;21757;43.610;1.440;2023-08-07T04:09:51;15.90;99.90
35635;DHT22;21757;43.610;1.440;2023-08-07T04:12:16;15.90;99.90
35635;DHT22;21757;43.610;1.440;2023-08-07T04:14:42;15.90;99.90
35635;DHT22;21757;43.610;1.440;2023-08-07T04:17:08;15.90;99.90
35635;DHT22;21757;43.610;1.440;2023-08-07T04:19:33;15.90;99.90
35635;DHT22;21757;43.610;1.440;2023-08-07T04:21:59;15.80;99.90
35635;DHT22;21757;43.610;1.440;2023-08-07T04:24:25;15.90;99.90
35635;DHT22;21757;43.610;1.440;2023-08-07T04:26:50;16.00;99.90
35635;DHT22;21757;43.610;1.440;2023-08-07T04:29:16;16.00;99.90
35635;DHT22;21757;43.610;1.440;2023-08-07T04:31:42;16.00;99.90
35635;DHT22;21757;43.610;1.440;2023-08-07T04:34:08;15.90;99.90
35635;DHT22;21757;43.610;1.440;2023-08-07T04:36:34;15.80;99.90
35635;DHT22;21757;43.610;1.440;2023-08-07T04:38:59;15.80;99.90
35635;DHT22;21757;43.610;1.440;2023-08-07T04:41:25;15.80;99.90
35635;DHT22;21757;43.610;1.440;2023-08-07T04:43:51;15.80;99.90
35635;DHT22;21757;43.610;1.440;2023-08-07T04:46:16;15.80;99.90
35635;DHT22;21757;43.610;1.440;2023-08-07T04:48:42;15.70;99.90
35635;DHT22;21757;43.610;1.440;2023-08-07T04:51:08;15.70;99.90
35635;DHT22;21757;43.610;1.440;2023-08-07T04:53:33;15.70;99.90
35635;DHT22;21757;43.610;1.440;2023-08-07T04:56:00;15.70;99.90
35635;DHT22;21757;43.610;1.440;2023-08-07T04:58:25;15.70;99.90
35635;DHT22;21757;43.610;1.440;2023-08-07T05:00:57;15.70;99.90
35635;DHT22;21757;43.610;1.440;2023-08-07T05:03:26;15.70;99.90
35635;DHT22;21757;43.610;1.440;2023-08-07T05:06:01;15.70;99.90
35635;DHT22;21757;43.610;1.440;2023-08-07T05:08:27;15.80;99.90
35635;DHT22;21757;43.610;1.440;2023-08-07T05:10:53;15.80;99.90
35635;DHT22;21757;43.610;1.440;2023-08-07T05:13:19;15.80;99.90
35635;DHT22;21757;43.610;1.440;2023-08-07T05:15:47;15.70;99.90
35635;DHT22;21757;43.610;1.440;2023-08-07T05:18:12;15.60;99.90
35635;DHT22;21757;43.610;1.440;2023-08-07T05:20:38;15.50;99.90
35635;DHT22;21757;43.610;1.440;2023-08-07T05:23:04;15.60;99.90
35635;DHT22;21757;43.610;1.440;2023-08-07T05:25:29;15.70;99.90
35635;DHT22;21757;43.610;1.440;2023-08-07T05:27:55;15.70;99.90
35635;DHT22;21757;43.610;1.440;2023-08-07T05:30:20;15.70;99.90
35635;DHT22;21757;43.610;1.440;2023-08-07T05:32:46;15.70;99.90
35635;DHT22;21757;43.610;1.440;2023-08-07T05:35:12;15.70;99.90
35635;DHT22;21757;43.610;1.440;2023-08-07T05:37:37;15.80;99.90
35635;DHT22;21757;43.610;1.440;2023-08-07T05:40:04;15.80;99.90
35635;DHT22;21757;43.610;1.440;2023-08-07T05:42:30;15.70;99.90
35635;DHT22;21757;43.610;1.440;2023-08-07T05:44:56;15.70;99.90
35635;DHT22;21757;43.610;1.440;2023-08-07T05:47:21;15.70;99.90
35635;DHT22;21757;43.610;1.440;2023-08-07T05:49:47;15.90;99.90
35635;DHT22;21757;43.610;1.440;2023-08-07T05:52:15;16.00;99.90
35635;DHT22;21757;43.610;1.440;2023-08-07T05:54:41;16.00;99.90
35635;DHT22;21757;43.610;1.440;2023-08-07T05:57:06;16.10;99.90
35635;DHT22;21757;43.610;1.440;2023-08-07T05:59:32;16.30;99.90
35635;DHT22;21757;43.610;1.440;2023-08-07T06:02:00;16.40;99.90
35635;DHT22;21757;43.610;1.440;2023-08-07T06:04:25;16.50;99.90
35635;DHT22;21757;43.610;1.440;2023-08-07T06:06:51;16.50;99.90
35635;DHT22;21757;43.610;1.440;2023-08-07T06:09:17;16.40;99.90
35635;DHT22;21757;43.610;1.440;2023-08-07T06:11:43;16.40;99.90
35635;DHT22;21757;43.610;1.440;2023-08-07T06:14:08;16.50;99.90
35635;DHT22;21757;43.610;1.440;2023-08-07T06:16:34;16.50;99.90
35635;DHT22;21757;43.610;1.440;2023-08-07T06:19:00;16.50;99.90
35635;DHT22;21757;43.610;1.440;2023-08-07T06:21:25;16.70;99.90
35635;DHT22;21757;43.610;1.440;2023-08-07T06:23:54;16.50;99.90
35635;DHT22;21757;43.610;1.440;2023-08-07T06:26:20;16.50;99.90
35635;DHT22;21757;43.610;1.440;2023-08-07T06:28:46;16.60;99.90
35635;DHT22;21757;43.610;1.440;2023-08-07T06:31:12;16.60;99.90
35635;DHT22;21757;43.610;1.440;2023-08-07T06:33:38;16.50;99.90
35635;DHT22;21757;43.610;1.440;2023-08-07T06:36:06;16.50;99.90
35635;DHT22;21757;43.610;1.440;2023-08-07T06:38:31;16.50;99.90
35635;DHT22;21757;43.610;1.440;2023-08-07T06:40:57;16.40;99.90
35635;DHT22;21757;43.610;1.440;2023-08-07T06:43:23;16.30;99.90
35635;DHT22;21757;43.610;1.440;2023-08-07T06:45:53;16.40;99.90
35635;DHT22;21757;43.610;1.440;2023-08-07T06:48:19;16.70;99.90
35635;DHT22;21757;43.610;1.440;2023-08-07T06:50:47;16.60;99.90
35635;DHT22;21757;43.610;1.440;2023-08-07T06:53:13;16.70;99.90
35635;DHT22;21757;43.610;1.440;2023-08-07T06:55:40;17.00;99.90
35635;DHT22;21757;43.610;1.440;2023-08-07T06:58:06;16.70;99.90
35635;DHT22;21757;43.610;1.440;2023-08-07T07:00:31;16.80;99.90
35635;DHT22;21757;43.610;1.440;2023-08-07T07:02:59;16.60;99.90
35635;DHT22;21757;43.610;1.440;2023-08-07T07:05:25;16.80;99.90
35635;DHT22;21757;43.610;1.440;2023-08-07T07:07:50;17.00;99.90
35635;DHT22;21757;43.610;1.440;2023-08-07T07:10:16;16.90;99.90
35635;DHT22;21757;43.610;1.440;2023-08-07T07:12:42;17.10;99.90
35635;DHT22;21757;43.610;1.440;2023-08-07T07:15:08;17.50;99.90
35635;DHT22;21757;43.610;1.440;2023-08-07T07:17:34;17.40;99.90
35635;DHT22;21757;43.610;1.440;2023-08-07T07:20:00;17.20;99.90
35635;DHT22;21757;43.610;1.440;2023-08-07T07:22:25;17.10;99.90
35635;DHT22;21757;43.610;1.440;2023-08-07T07:24:51;17.20;99.90
35635;DHT22;21757;43.610;1.440;2023-08-07T07:27:17;17.30;99.90
35635;DHT22;21757;43.610;1.440;2023-08-07T07:29:42;17.30;99.90
35635;DHT22;21757;43.610;1.440;2023-08-07T07:32:08;17.30;99.90
35635;DHT22;21757;43.610;1.440;2023-08-07T07:34:34;17.40;99.90
35635;DHT22;21757;43.610;1.440;2023-08-07T07:36:59;17.50;99.90
35635;DHT22;21757;43.610;1.440;2023-08-07T07:39:25;17.60;99.90
35635;DHT22;21757;43.610;1.440;2023-08-07T07:41:51;17.60;99.90
35635;DHT22;21757;43.610;1.440;2023-08-07T07:44:16;17.70;99.90
35635;DHT22;21757;43.610;1.440;2023-08-07T07:46:42;17.70;99.90
35635;DHT22;21757;43.610;1.440;2023-08-07T07:49:08;17.70;99.90
35635;DHT22;21757;43.610;1.440;2023-08-07T07:51:33;17.80;99.90
35635;DHT22;21757;43.610;1.440;2023-08-07T07:54:00;17.90;99.90
35635;DHT22;21757;43.610;1.440;2023-08-07T07:56:26;17.90;99.90
35635;DHT22;21757;43.610;1.440;2023-08-07T07:58:52;17.90;99.90
35635;DHT22;21757;43.610;1.440;2023-08-07T08:01:17;18.00;99.90
35635;DHT22;21757;43.610;1.440;2023-08-07T08:03:43;17.90;99.90
35635;DHT22;21757;43.610;1.440;2023-08-07T08:06:11;17.90;99.90
35635;DHT22;21757;43.610;1.440;2023-08-07T08:08:37;18.10;99.90
35635;DHT22;21757;43.610;1.440;2023-08-07T08:11:03;18.10;99.90
35635;DHT22;21757;43.610;1.440;2023-08-07T08:13:29;18.30;99.90
35635;DHT22;21757;43.610;1.440;2023-08-07T08:15:54;18.30;99.90
35635;DHT22;21757;43.610;1.440;2023-08-07T08:18:20;18.40;99.90
35635;DHT22;21757;43.610;1.440;2023-08-07T08:20:45;18.50;99.90
35635;DHT22;21757;43.610;1.440;2023-08-07T08:23:11;18.50;99.90
35635;DHT22;21757;43.610;1.440;2023-08-07T08:25:37;18.50;99.90
35635;DHT22;21757;43.610;1.440;2023-08-07T08:28:03;18.70;99.90
35635;DHT22;21757;43.610;1.440;2023-08-07T08:30:29;18.90;99.90
35635;DHT22;21757;43.610;1.440;2023-08-07T08:32:55;18.80;99.90
35635;DHT22;21757;43.610;1.440;2023-08-07T08:35:21;18.70;99.90
35635;DHT22;21757;43.610;1.440;2023-08-07T08:37:46;18.70;99.90
35635;DHT22;21757;43.610;1.440;2023-08-07T08:40:13;18.90;99.90
35635;DHT22;21757;43.610;1.440;2023-08-07T08:42:43;18.90;99.90
35635;DHT22;21757;43.610;1.440;2023-08-07T08:45:09;19.00;99.90
35635;DHT22;21757;43.610;1.440;2023-08-07T08:47:37;19.00;99.90
35635;DHT22;21757;43.610;1.440;2023-08-07T08:50:09;19.10;99.90
35635;DHT22;21757;43.610;1.440;2023-08-07T08:52:37;19.10;99.90
35635;DHT22;21757;43.610;1.440;2023-08-07T08:55:04;19.10;99.90
35635;DHT22;21757;43.610;1.440;2023-08-07T08:57:30;19.10;99.90
35635;DHT22;21757;43.610;1.440;2023-08-07T08:59:58;19.10;99.90
35635;DHT22;21757;43.610;1.440;2023-08-07T09:02:25;19.20;99.90
35635;DHT22;21757;43.610;1.440;2023-08-07T09:04:51;19.30;99.90
35635;DHT22;21757;43.610;1.440;2023-08-07T09:07:20;19.30;99.90
35635;DHT22;21757;43.610;1.440;2023-08-07T09:09:47;19.40;99.90
35635;DHT22;21757;43.610;1.440;2023-08-07T09:12:26;19.40;99.90
35635;DHT22;21757;43.610;1.440;2023-08-07T09:14:56;19.30;99.90
35635;DHT22;21757;43.610;1.440;2023-08-07T09:17:29;19.20;99.90
35635;DHT22;21757;43.610;1.440;2023-08-07T09:19:57;19.30;99.90
35635;DHT22;21757;43.610;1.440;2023-08-07T09:22:23;19.50;99.90
35635;DHT22;21757;43.610;1.440;2023-08-07T09:24:50;19.70;99.90
35635;DHT22;21757;43.610;1.440;2023-08-07T09:27:15;19.60;99.90
35635;DHT22;21757;43.610;1.440;2023-08-07T09:29:43;19.70;99.90
35635;DHT22;21757;43.610;1.440;2023-08-07T09:32:12;19.90;99.90
35635;DHT22;21757;43.610;1.440;2023-08-07T09:34:42;19.90;99.90
35635;DHT22;21757;43.610;1.440;2023-08-07T09:37:08;19.70;99.90
35635;DHT22;21757;43.610;1.440;2023-08-07T09:39:35;19.80;99.90
35635;DHT22;21757;43.610;1.440;2023-08-07T09:42:02;19.90;99.90
35635;DHT22;21757;43.610;1.440;2023-08-07T09:44:37;20.00;99.90
35635;DHT22;21757;43.610;1.440;2023-08-07T09:47:16;19.90;99.90
35635;DHT22;21757;43.610;1.440;2023-08-07T09:49:45;20.00;99.90
35635;DHT22;21757;43.610;1.440;2023-08-07T09:52:13;20.10;99.90
35635;DHT22;21757;43.610;1.440;2023-08-07T09:54:40;20.20;99.90
35635;DHT22;21757;43.610;1.440;2023-08-07T09:57:06;20.20;99.90
35635;DHT22;21757;43.610;1.440;2023-08-07T09:59:35;20.30;99.90
35635;DHT22;21757;43.610;1.440;2023-08-07T10:02:02;20.10;99.90
35635;DHT22;21757;43.610;1.440;2023-08-07T10:04:28;20.20;99.90
35635;DHT22;21757;43.610;1.440;2023-08-07T10:06:54;20.30;99.90
35635;DHT22;21757;43.610;1.440;2023-08-07T10:09:21;20.40;99.90
35635;DHT22;21757;43.610;1.440;2023-08-07T10:11:48;20.50;99.90
35635;DHT22;21757;43.610;1.440;2023-08-07T10:14:14;20.60;99.90
35635;DHT22;21757;43.610;1.440;2023-08-07T10:16:41;20.70;99.90
35635;DHT22;21757;43.610;1.440;2023-08-07T10:19:10;20.80;99.90
35635;DHT22;21757;43.610;1.440;2023-08-07T10:21:39;20.60;99.90
35635;DHT22;21757;43.610;1.440;2023-08-07T10:24:06;20.60;99.90
35635;DHT22;21757;43.610;1.440;2023-08-07T10:26:40;20.60;99.90
35635;DHT22;21757;43.610;1.440;2023-08-07T10:29:09;20.60;99.90
35635;DHT22;21757;43.610;1.440;2023-08-07T10:31:36;20.60;99.90
35635;DHT22;21757;43.610;1.440;2023-08-07T10:34:03;20.60;99.90
35635;DHT22;21757;43.610;1.440;2023-08-07T10:36:33;20.70;99.90
35635;DHT22;21757;43.610;1.440;2023-08-07T10:39:06;21.00;99.90
35635;DHT22;21757;43.610;1.440;2023-08-07T10:41:38;20.90;99.90
35635;DHT22;21757;43.610;1.440;2023-08-07T10:44:05;20.90;99.90
35635;DHT22;21757;43.610;1.440;2023-08-07T10:46:51;20.90;99.90
35635;DHT22;21757;43.610;1.440;2023-08-07T10:49:31;20.90;99.90
35635;DHT22;21757;43.610;1.440;2023-08-07T10:52:19;20.80;99.90
35635;DHT22;21757;43.610;1.440;2023-08-07T10:54:49;21.00;99.90
35635;DHT22;21757;43.610;1.440;2023-08-07T10:57:16;21.10;99.90
35635;DHT22;21757;43.610;1.440;2023-08-07T11:02:25;21.20;99.90
35635;DHT22;21757;43.610;1.440;2023-08-07T11:04:52;21.30;99.90
35635;DHT22;21757;43.610;1.440;2023-08-07T11:07:29;21.50;99.90
35635;DHT22;21757;43.610;1.440;2023-08-07T11:09:56;21.70;99.90
35635;DHT22;21757;43.610;1.440;2023-08-07T11:12:25;21.60;99.90
35635;DHT22;21757;43.610;1.440;2023-08-07T11:14:51;21.50;99.90
35635;DHT22;21757;43.610;1.440;2023-08-07T11:17:18;21.60;99.90
35635;DHT22;21757;43.610;1.440;2023-08-07T11:19:47;21.50;99.90
35635;DHT22;21757;43.610;1.440;2023-08-07T11:22:15;21.40;99.90
35635;DHT22;21757;43.610;1.440;2023-08-07T11:24:41;21.50;99.90
35635;DHT22;21757;43.610;1.440;2023-08-07T11:27:07;21.90;99.90
35635;DHT22;21757;43.610;1.440;2023-08-07T11:29:33;22.00;99.90
35635;DHT22;21757;43.610;1.440;2023-08-07T11:31:59;21.90;99.90
35635;DHT22;21757;43.610;1.440;2023-08-07T11:34:25;22.10;99.90
35635;DHT22;21757;43.610;1.440;2023-08-07T11:36:51;22.20;99.90
35635;DHT22;21757;43.610;1.440;2023-08-07T11:39:17;22.10;99.90
35635;DHT22;21757;43.610;1.440;2023-08-07T11:41:45;21.90;99.90
35635;DHT22;21757;43.610;1.440;2023-08-07T11:44:11;21.80;99.90
35635;DHT22;21757;43.610;1.440;2023-08-07T11:46:36;21.90;99.90
35635;DHT22;21757;43.610;1.440;2023-08-07T11:49:02;22.00;99.90
35635;DHT22;21757;43.610;1.440;2023-08-07T11:51:32;22.10;99.90
35635;DHT22;21757;43.610;1.440;2023-08-07T11:53:58;22.30;99.90
35635;DHT22;21757;43.610;1.440;2023-08-07T11:56:24;22.20;99.90
35635;DHT22;21757;43.610;1.440;2023-08-07T11:58:51;22.40;99.90
35635;DHT22;21757;43.610;1.440;2023-08-07T12:01:18;22.30;99.90
35635;DHT22;21757;43.610;1.440;2023-08-07T12:04:08;22.70;99.90
35635;DHT22;21757;43.610;1.440;2023-08-07T12:06:35;22.70;99.90
35635;DHT22;21757;43.610;1.440;2023-08-07T12:09:02;22.80;99.90
35635;DHT22;21757;43.610;1.440;2023-08-07T12:11:31;22.70;99.90
35635;DHT22;21757;43.610;1.440;2023-08-07T12:14:00;22.80;99.90
35635;DHT22;21757;43.610;1.440;2023-08-07T12:16:32;22.90;99.90
35635;DHT22;21757;43.610;1.440;2023-08-07T12:18:58;23.00;99.90
35635;DHT22;21757;43.610;1.440;2023-08-07T12:21:24;22.80;99.90
35635;DHT22;21757;43.610;1.440;2023-08-07T12:23:51;22.70;99.90
35635;DHT22;21757;43.610;1.440;2023-08-07T12:26:20;22.60;99.90
35635;DHT22;21757;43.610;1.440;2023-08-07T12:28:46;22.70;99.90
35635;DHT22;21757;43.610;1.440;2023-08-07T12:31:11;22.80;99.90
35635;DHT22;21757;43.610;1.440;2023-08-07T12:33:37;22.80;99.90
35635;DHT22;21757;43.610;1.440;2023-08-07T12:36:03;22.90;99.90
35635;DHT22;21757;43.610;1.440;2023-08-07T12:38:29;22.90;99.90
35635;DHT22;21757;43.610;1.440;2023-08-07T12:40:54;23.00;99.90
35635;DHT22;21757;43.610;1.440;2023-08-07T12:43:20;23.20;99.90
35635;DHT22;21757;43.610;1.440;2023-08-07T12:45:46;23.10;99.90
35635;DHT22;21757;43.610;1.440;2023-08-07T12:48:12;23.40;99.90
35635;DHT22;21757;43.610;1.440;2023-08-07T12:50:39;23.40;99.90
35635;DHT22;21757;43.610;1.440;2023-08-07T12:53:05;23.10;99.90
35635;DHT22;21757;43.610;1.440;2023-08-07T12:55:31;23.00;99.90
35635;DHT22;21757;43.610;1.440;2023-08-07T12:57:57;23.00;99.90
35635;DHT22;21757;43.610;1.440;2023-08-07T13:00:23;23.10;99.90
35635;DHT22;21757;43.610;1.440;2023-08-07T13:02:50;23.30;99.90
35635;DHT22;21757;43.610;1.440;2023-08-07T13:05:17;23.50;99.90
35635;DHT22;21757;43.610;1.440;2023-08-07T13:07:45;23.50;99.90
35635;DHT22;21757;43.610;1.440;2023-08-07T13:10:13;23.40;99.90
35635;DHT22;21757;43.610;1.440;2023-08-07T13:12:41;23.40;99.90
35635;DHT22;21757;43.610;1.440;2023-08-07T13:15:08;23.30;99.90
35635;DHT22;21757;43.610;1.440;2023-08-07T13:17:35;23.50;99.90
35635;DHT22;21757;43.610;1.440;2023-08-07T13:20:02;23.60;99.90
35635;DHT22;21757;43.610;1.440;2023-08-07T13:22:38;23.60;99.90
35635;DHT22;21757;43.610;1.440;2023-08-07T13:25:04;23.70;99.90
35635;DHT22;21757;43.610;1.440;2023-08-07T13:27:31;23.60;99.90
35635;DHT22;21757;43.610;1.440;2023-08-07T13:29:57;23.70;99.90
35635;DHT22;21757;43.610;1.440;2023-08-07T13:32:23;23.70;99.90
35635;DHT22;21757;43.610;1.440;2023-08-07T13:34:49;23.60;99.90
35635;DHT22;21757;43.610;1.440;2023-08-07T13:37:14;23.70;99.90
35635;DHT22;21757;43.610;1.440;2023-08-07T13:39:40;23.70;99.90
35635;DHT22;21757;43.610;1.440;2023-08-07T13:42:07;23.80;99.90
35635;DHT22;21757;43.610;1.440;2023-08-07T13:44:33;23.80;99.90
35635;DHT22;21757;43.610;1.440;2023-08-07T13:46:59;23.90;99.90
35635;DHT22;21757;43.610;1.440;2023-08-07T13:49:24;24.00;99.90
35635;DHT22;21757;43.610;1.440;2023-08-07T13:51:50;23.90;99.90
35635;DHT22;21757;43.610;1.440;2023-08-07T13:54:16;23.90;99.90
35635;DHT22;21757;43.610;1.440;2023-08-07T13:56:41;24.20;99.90
35635;DHT22;21757;43.610;1.440;2023-08-07T13:59:07;24.20;99.90
35635;DHT22;21757;43.610;1.440;2023-08-07T14:01:34;24.10;99.90
35635;DHT22;21757;43.610;1.440;2023-08-07T14:04:01;24.40;99.90
35635;DHT22;21757;43.610;1.440;2023-08-07T14:06:27;24.30;99.90
35635;DHT22;21757;43.610;1.440;2023-08-07T14:08:53;24.20;99.90
35635;DHT22;21757;43.610;1.440;2023-08-07T14:11:18;24.30;99.90
35635;DHT22;21757;43.610;1.440;2023-08-07T14:13:45;24.30;99.90
35635;DHT22;21757;43.610;1.440;2023-08-07T14:16:12;24.70;99.90
35635;DHT22;21757;43.610;1.440;2023-08-07T14:18:37;24.70;99.90
35635;DHT22;21757;43.610;1.440;2023-08-07T14:21:03;24.60;99.90
35635;DHT22;21757;43.610;1.440;2023-08-07T14:23:29;24.50;99.90
35635;DHT22;21757;43.610;1.440;2023-08-07T14:25:55;24.60;99.90
35635;DHT22;21757;43.610;1.440;2023-08-07T14:28:21;24.60;99.90
35635;DHT22;21757;43.610;1.440;2023-08-07T14:30:47;24.50;99.90
35635;DHT22;21757;43.610;1.440;2023-08-07T14:33:13;24.90;99.90
35635;DHT22;21757;43.610;1.440;2023-08-07T14:35:39;24.80;99.90
35635;DHT22;21757;43.610;1.440;2023-08-07T14:38:05;24.70;99.90
35635;DHT22;21757;43.610;1.440;2023-08-07T14:40:30;24.60;99.90
35635;DHT22;21757;43.610;1.440;2023-08-07T14:42:56;24.70;99.90
35635;DHT22;21757;43.610;1.440;2023-08-07T14:45:22;24.90;99.90
35635;DHT22;21757;43.610;1.440;2023-08-07T14:47:49;24.90;99.90
35635;DHT22;21757;43.610;1.440;2023-08-07T14:50:15;24.90;99.90
35635;DHT22;21757;43.610;1.440;2023-08-07T14:52:44;24.90;99.90
35635;DHT22;21757;43.610;1.440;2023-08-07T14:55:10;24.80;99.90
35635;DHT22;21757;43.610;1.440;2023-08-07T14:57:36;24.70;99.90
35635;DHT22;21757;43.610;1.440;2023-08-07T15:00:01;24.80;99.90
35635;DHT22;21757;43.610;1.440;2023-08-07T15:02:28;24.60;99.90
35635;DHT22;21757;43.610;1.440;2023-08-07T15:04:54;24.70;99.90
35635;DHT22;21757;43.610;1.440;2023-08-07T15:07:19;24.80;99.90
35635;DHT22;21757;43.610;1.440;2023-08-07T15:09:45;24.80;99.90
35635;DHT22;21757;43.610;1.440;2023-08-07T15:12:11;24.70;99.90
35635;DHT22;21757;43.610;1.440;2023-08-07T15:14:36;24.70;99.90
35635;DHT22;21757;43.610;1.440;2023-08-07T15:17:03;24.90;99.90
35635;DHT22;21757;43.610;1.440;2023-08-07T15:19:29;25.10;99.90
35635;DHT22;21757;43.610;1.440;2023-08-07T15:21:54;24.90;99.90
35635;DHT22;21757;43.610;1.440;2023-08-07T15:24:20;24.90;99.90
35635;DHT22;21757;43.610;1.440;2023-08-07T15:26:46;24.80;99.90
35635;DHT22;21757;43.610;1.440;2023-08-07T15:29:11;25.00;99.90
35635;DHT22;21757;43.610;1.440;2023-08-07T15:31:37;25.10;99.90
35635;DHT22;21757;43.610;1.440;2023-08-07T15:34:03;25.00;99.90